Time;durP1;ratioP1;P1;durP2;ratioP2;P2;SDS_P1;SDS_P2;PMS_P1;PMS_P2;Temp;Humidity;BMP_temperature;BMP_pressure;BME280_temperature;BME280_humidity;BME280_pressure;Samples;Min_cycle;Max_cycle;Signal;HPM_P1;HPM_P2
2023/08/15 00:01:15;;;;;;;0.40;0.40;;;;;;;;;;4987346;28;20088;-70
2023/08/15 00:03:42;;;;;;;0.40;0.40;;;;;;;;;;4986983;28;20124;-70
2023/08/15 00:06:08;;;;;;;0.35;0.35;;;;;;;;;;4987156;28;20042;-70
2023/08/15 00:08:34;;;;;;;0.30;0.30;;;;;;;;;;4983792;28;20042;-71
2023/08/15 00:11:00;;;;;;;0.20;0.20;;;;;;;;;;4976026;28;20502;-71
2023/08/15 00:13:26;;;;;;;0.35;0.35;;;;;;;;;;4982011;28;20421;-70
2023/08/15 00:15:52;;;;;;;0.57;0.57;;;;;;;;;;4978289;28;20472;-71
2023/08/15 00:18:18;;;;;;;0.40;0.40;;;;;;;;;;4987014;28;20420;-71
2023/08/15 00:20:47;;;;;;;0.30;0.30;;;;;;;;;;4986610;28;20117;-71
2023/08/15 00:23:13;;;;;;;0.40;0.40;;;;;;;;;;4964495;28;20478;-71
2023/08/15 00:25:39;;;;;;;0.30;0.30;;;;;;;;;;4982474;28;20379;-71
2023/08/15 00:28:05;;;;;;;0.30;0.30;;;;;;;;;;4986980;28;20045;-71
2023/08/15 00:30:32;;;;;;;0.47;0.47;;;;;;;;;;4986838;28;20042;-71
2023/08/15 00:32:59;;;;;;;0.30;0.30;;;;;;;;;;4986381;28;20042;-71
2023/08/15 00:35:25;;;;;;;0.30;0.30;;;;;;;;;;4975319;28;20077;-71
2023/08/15 00:37:51;;;;;;;0.40;0.40;;;;;;;;;;4987006;28;20042;-71
2023/08/15 00:40:17;;;;;;;0.40;0.40;;;;;;;;;;4978123;28;20049;-71
2023/08/15 00:42:43;;;;;;;0.45;0.45;;;;;;;;;;4986521;28;20050;-71
2023/08/15 00:45:09;;;;;;;0.40;0.40;;;;;;;;;;4986787;28;20060;-71
2023/08/15 00:47:35;;;;;;;0.55;0.43;;;;;;;;;;4985427;28;20046;-71
2023/08/15 00:50:02;;;;;;;0.50;0.50;;;;;;;;;;4986232;28;20038;-71
2023/08/15 00:55:35;;;;;;;0.30;0.30;;;;;;;;;;4983596;28;20273;-71
2023/08/15 00:58:01;;;;;;;0.30;0.30;;;;;;;;;;4981972;28;20042;-71
2023/08/15 01:00:27;;;;;;;0.88;0.88;;;;;;;;;;4978677;28;20112;-71
2023/08/15 01:02:53;;;;;;;0.70;0.70;;;;;;;;;;4987932;28;20039;-71
2023/08/15 01:05:21;;;;;;;0.30;0.30;;;;;;;;;;4969256;28;21121;-71
2023/08/15 01:07:47;;;;;;;0.40;0.40;;;;;;;;;;4989153;28;20363;-71
2023/08/15 01:10:13;;;;;;;0.38;0.38;;;;;;;;;;4984916;28;20517;-71
2023/08/15 01:12:45;;;;;;;0.60;0.60;;;;;;;;;;4988067;28;20137;-71
2023/08/15 01:15:19;;;;;;;0.20;0.20;;;;;;;;;;4987302;28;20038;-70
2023/08/15 01:17:49;;;;;;;0.40;0.40;;;;;;;;;;4988309;28;20030;-70
2023/08/15 01:20:18;;;;;;;0.40;0.40;;;;;;;;;;4988224;28;20089;-71
2023/08/15 01:25:53;;;;;;;0.20;0.20;;;;;;;;;;4988298;28;20426;-70
2023/08/15 01:28:19;;;;;;;0.32;0.32;;;;;;;;;;4988514;28;20253;-71
2023/08/15 01:30:57;;;;;;;0.40;0.40;;;;;;;;;;4989343;28;20078;-71
2023/08/15 01:33:30;;;;;;;0.40;0.40;;;;;;;;;;4989296;28;20049;-70
2023/08/15 01:35:59;;;;;;;0.30;0.30;;;;;;;;;;4987515;28;20046;-70
2023/08/15 01:38:46;;;;;;;0.30;0.30;;;;;;;;;;4964136;28;20030;-69
2023/08/15 01:41:18;;;;;;;0.40;0.40;;;;;;;;;;4983591;28;20054;-70
2023/08/15 01:43:45;;;;;;;0.40;0.40;;;;;;;;;;4990534;28;20038;-70
2023/08/15 01:46:11;;;;;;;0.32;0.32;;;;;;;;;;4989742;28;20042;-70
2023/08/15 01:48:41;;;;;;;0.30;0.30;;;;;;;;;;4988248;28;20046;-70
2023/08/15 01:54:17;;;;;;;0.30;0.30;;;;;;;;;;4988863;28;20192;-69
2023/08/15 01:56:43;;;;;;;0.50;0.50;;;;;;;;;;4986121;28;20042;-70
2023/08/15 01:59:16;;;;;;;0.50;0.50;;;;;;;;;;4989915;28;20042;-71
2023/08/15 02:01:41;;;;;;;0.40;0.40;;;;;;;;;;4989130;28;20045;-70
2023/08/15 02:04:07;;;;;;;0.30;0.30;;;;;;;;;;4989845;28;20042;-71
2023/08/15 02:06:34;;;;;;;0.22;0.22;;;;;;;;;;4986666;28;20780;-70
2023/08/15 02:09:00;;;;;;;0.30;0.30;;;;;;;;;;4990535;28;20561;-70
2023/08/15 02:11:26;;;;;;;0.50;0.50;;;;;;;;;;4985825;28;20045;-71
2023/08/15 02:13:54;;;;;;;0.40;0.40;;;;;;;;;;4988474;28;20050;-71
2023/08/15 02:16:20;;;;;;;0.30;0.30;;;;;;;;;;4971477;28;20042;-71
2023/08/15 02:18:46;;;;;;;0.40;0.40;;;;;;;;;;4989573;28;20035;-71
2023/08/15 02:27:03;;;;;;;0.47;0.47;;;;;;;;;;5007290;23;20514;-71
2023/08/15 02:29:29;;;;;;;0.40;0.40;;;;;;;;;;4987959;28;20058;-70
2023/08/15 02:31:55;;;;;;;0.30;0.30;;;;;;;;;;5003497;28;20050;-70
2023/08/15 02:34:21;;;;;;;0.30;0.30;;;;;;;;;;4989009;28;20049;-70
2023/08/15 02:36:47;;;;;;;0.40;0.40;;;;;;;;;;4989908;28;20092;-70
2023/08/15 02:39:17;;;;;;;0.30;0.30;;;;;;;;;;4989065;28;20042;-70
2023/08/15 02:41:43;;;;;;;0.32;0.32;;;;;;;;;;4969607;28;20125;-70
2023/08/15 02:44:09;;;;;;;0.35;0.35;;;;;;;;;;4988005;28;20057;-70
2023/08/15 02:46:35;;;;;;;0.63;0.63;;;;;;;;;;4988237;28;20144;-71
2023/08/15 02:49:02;;;;;;;0.43;0.43;;;;;;;;;;4980381;28;20043;-70
2023/08/15 02:51:28;;;;;;;0.50;0.50;;;;;;;;;;4986091;28;20521;-70
2023/08/15 02:53:54;;;;;;;0.40;0.40;;;;;;;;;;4972466;28;20088;-70
2023/08/15 02:56:20;;;;;;;0.75;0.65;;;;;;;;;;4993924;28;20051;-70
2023/08/15 02:58:46;;;;;;;0.45;0.45;;;;;;;;;;4998313;28;20038;-71
2023/08/15 03:01:12;;;;;;;0.30;0.30;;;;;;;;;;4992980;28;20045;-70
2023/08/15 03:03:39;;;;;;;0.40;0.40;;;;;;;;;;4997337;28;20136;-70
2023/08/15 03:06:05;;;;;;;0.40;0.40;;;;;;;;;;4976120;28;20070;-70
2023/08/15 03:08:31;;;;;;;0.30;0.30;;;;;;;;;;4969800;28;20526;-70
2023/08/15 03:11:00;;;;;;;0.55;0.55;;;;;;;;;;5004670;28;20046;-70
2023/08/15 03:13:27;;;;;;;0.40;0.40;;;;;;;;;;5005007;28;20046;-71
2023/08/15 03:15:54;;;;;;;0.55;0.55;;;;;;;;;;4978530;28;20041;-70
2023/08/15 03:18:20;;;;;;;0.30;0.30;;;;;;;;;;4996250;28;20054;-70
2023/08/15 03:20:56;;;;;;;0.40;0.40;;;;;;;;;;4999991;28;20468;-71
2023/08/15 03:23:22;;;;;;;0.45;0.45;;;;;;;;;;4987246;28;20050;-70
2023/08/15 03:25:58;;;;;;;0.50;0.50;;;;;;;;;;5003943;28;20054;-71
2023/08/15 03:28:24;;;;;;;0.30;0.30;;;;;;;;;;5000040;28;20047;-70
2023/08/15 03:30:51;;;;;;;0.40;0.40;;;;;;;;;;4993472;28;20044;-70
2023/08/15 03:33:17;;;;;;;0.60;0.60;;;;;;;;;;4992958;28;20066;-70
2023/08/15 03:35:47;;;;;;;0.40;0.40;;;;;;;;;;4988183;28;20038;-70
2023/08/15 03:38:15;;;;;;;8.55;0.95;;;;;;;;;;4988838;28;20482;-71
2023/08/15 03:40:41;;;;;;;0.35;0.35;;;;;;;;;;4979473;28;20064;-70
2023/08/15 03:43:07;;;;;;;0.52;0.52;;;;;;;;;;4988042;28;20557;-70
2023/08/15 03:45:33;;;;;;;0.30;0.30;;;;;;;;;;4992684;28;20080;-69
2023/08/15 03:47:59;;;;;;;0.63;0.63;;;;;;;;;;4991428;28;20469;-69
2023/08/15 03:50:25;;;;;;;0.50;0.50;;;;;;;;;;4979283;28;20481;-69
2023/08/15 03:52:51;;;;;;;0.60;0.60;;;;;;;;;;4990292;28;20547;-69
2023/08/15 03:55:18;;;;;;;1.70;1.23;;;;;;;;;;4991521;28;20117;-70
2023/08/15 03:57:44;;;;;;;1.48;0.70;;;;;;;;;;4994075;28;20125;-70
2023/08/15 04:00:11;;;;;;;0.60;0.60;;;;;;;;;;4987603;28;20049;-70
2023/08/15 04:02:37;;;;;;;0.20;0.20;;;;;;;;;;4991505;28;20121;-69
2023/08/15 04:05:03;;;;;;;0.30;0.30;;;;;;;;;;4993504;28;20046;-70
2023/08/15 04:07:29;;;;;;;0.55;0.55;;;;;;;;;;4988947;28;20044;-69
2023/08/15 04:09:55;;;;;;;0.65;0.65;;;;;;;;;;4992532;28;20405;-71
2023/08/15 04:12:21;;;;;;;0.52;0.52;;;;;;;;;;4996595;28;20088;-70
2023/08/15 04:14:47;;;;;;;0.57;0.57;;;;;;;;;;4988388;28;20045;-70
2023/08/15 04:17:13;;;;;;;0.85;0.85;;;;;;;;;;4999012;28;20092;-70
2023/08/15 04:19:39;;;;;;;0.40;0.40;;;;;;;;;;4985557;28;20039;-70
2023/08/15 04:22:05;;;;;;;0.40;0.40;;;;;;;;;;4988392;28;20049;-69
2023/08/15 04:24:31;;;;;;;0.73;0.73;;;;;;;;;;4989646;28;20046;-70
2023/08/15 04:26:59;;;;;;;0.50;0.50;;;;;;;;;;4997458;28;20050;-70
2023/08/15 04:29:25;;;;;;;0.40;0.40;;;;;;;;;;4989254;28;20078;-70
2023/08/15 04:31:51;;;;;;;0.50;0.50;;;;;;;;;;4993850;28;20047;-69
2023/08/15 04:34:17;;;;;;;0.40;0.40;;;;;;;;;;4991629;28;20046;-70
2023/08/15 04:36:46;;;;;;;0.40;0.40;;;;;;;;;;4988582;28;20504;-73
2023/08/15 04:39:13;;;;;;;0.43;0.43;;;;;;;;;;4979536;28;20038;-70
2023/08/15 04:41:39;;;;;;;0.85;0.85;;;;;;;;;;5002923;28;20054;-73
2023/08/15 04:44:05;;;;;;;0.60;0.60;;;;;;;;;;4991919;28;20050;-71
2023/08/15 04:46:31;;;;;;;0.40;0.40;;;;;;;;;;4986798;28;20046;-72
2023/08/15 04:48:57;;;;;;;0.75;0.57;;;;;;;;;;4983855;28;20045;-71
2023/08/15 04:51:23;;;;;;;1.05;0.95;;;;;;;;;;4979831;28;20050;-72
2023/08/15 04:53:49;;;;;;;2.72;1.45;;;;;;;;;;4988109;28;20104;-71
2023/08/15 04:56:16;;;;;;;2.40;2.10;;;;;;;;;;4992702;28;20156;-73
2023/08/15 04:58:42;;;;;;;0.95;0.95;;;;;;;;;;4995280;28;20164;-72
2023/08/15 05:01:09;;;;;;;1.40;1.30;;;;;;;;;;4987429;28;20149;-71
2023/08/15 05:03:35;;;;;;;0.57;0.57;;;;;;;;;;4977537;28;20549;-71
2023/08/15 05:06:02;;;;;;;0.77;0.77;;;;;;;;;;4989249;28;20054;-71
2023/08/15 05:08:29;;;;;;;1.03;1.03;;;;;;;;;;4988303;28;20049;-71
2023/08/15 05:10:55;;;;;;;1.65;1.48;;;;;;;;;;4991939;28;20509;-72
2023/08/15 05:13:21;;;;;;;0.38;0.38;;;;;;;;;;4962308;28;20046;-72
2023/08/15 05:15:47;;;;;;;0.40;0.40;;;;;;;;;;4983107;28;20042;-71
2023/08/15 05:18:15;;;;;;;0.55;0.55;;;;;;;;;;5002206;28;20273;-72
2023/08/15 05:20:42;;;;;;;0.40;0.40;;;;;;;;;;4976697;28;20057;-72
2023/08/15 05:23:08;;;;;;;1.00;0.60;;;;;;;;;;4981901;28;20161;-71
2023/08/15 05:25:34;;;;;;;0.40;0.40;;;;;;;;;;4973937;28;20051;-71
2023/08/15 05:28:06;;;;;;;0.55;0.55;;;;;;;;;;4988409;28;20058;-74
2023/08/15 05:30:32;;;;;;;0.40;0.40;;;;;;;;;;4990117;28;20115;-71
2023/08/15 05:32:59;;;;;;;1.00;0.95;;;;;;;;;;4986273;28;20150;-71
2023/08/15 05:35:25;;;;;;;0.88;0.88;;;;;;;;;;4986381;28;20042;-76
2023/08/15 05:37:51;;;;;;;0.50;0.50;;;;;;;;;;4986444;28;20093;-73
2023/08/15 05:40:17;;;;;;;0.30;0.30;;;;;;;;;;4984467;28;20035;-74
2023/08/15 05:42:43;;;;;;;0.55;0.55;;;;;;;;;;4992643;28;20125;-75
2023/08/15 05:45:10;;;;;;;0.40;0.40;;;;;;;;;;4994652;28;20046;-71
2023/08/15 05:47:36;;;;;;;0.40;0.40;;;;;;;;;;4986045;28;20046;-72
2023/08/15 05:50:02;;;;;;;0.50;0.50;;;;;;;;;;4988403;28;20043;-71
2023/08/15 05:52:28;;;;;;;0.40;0.40;;;;;;;;;;5005633;28;20038;-71
2023/08/15 05:54:56;;;;;;;0.40;0.40;;;;;;;;;;4998544;28;20095;-71
2023/08/15 05:57:22;;;;;;;0.50;0.50;;;;;;;;;;5002384;28;20367;-71
2023/08/15 06:03:11;;;;;;;1.50;0.88;;;;;;;;;;4999466;28;20045;-73
2023/08/15 06:05:37;;;;;;;0.82;0.82;;;;;;;;;;5000175;28;20038;-72
2023/08/15 06:08:03;;;;;;;1.75;1.40;;;;;;;;;;5005383;28;20042;-71
2023/08/15 06:10:29;;;;;;;0.32;0.32;;;;;;;;;;4989586;28;20255;-71
2023/08/15 06:12:55;;;;;;;0.75;0.75;;;;;;;;;;4995505;28;20444;-73
2023/08/15 06:15:21;;;;;;;0.57;0.57;;;;;;;;;;5003242;28;20085;-74
2023/08/15 06:17:47;;;;;;;1.00;1.00;;;;;;;;;;4987712;28;20046;-72
2023/08/15 06:20:14;;;;;;;0.38;0.38;;;;;;;;;;4989296;28;20169;-73
2023/08/15 06:22:40;;;;;;;0.40;0.40;;;;;;;;;;4981548;28;20395;-72
2023/08/15 06:25:09;;;;;;;0.55;0.52;;;;;;;;;;4991446;28;20084;-72
2023/08/15 06:27:36;;;;;;;0.80;0.80;;;;;;;;;;4982200;28;20352;-72
2023/08/15 06:30:02;;;;;;;0.50;0.50;;;;;;;;;;4992124;28;20129;-72
2023/08/15 06:32:29;;;;;;;0.70;0.70;;;;;;;;;;4988944;28;20604;-71
2023/08/15 06:34:55;;;;;;;0.80;0.80;;;;;;;;;;4982020;28;20046;-71
2023/08/15 06:37:24;;;;;;;0.50;0.50;;;;;;;;;;4979725;28;20047;-71
2023/08/15 06:39:50;;;;;;;0.65;0.65;;;;;;;;;;4986806;28;20036;-70
2023/08/15 06:42:16;;;;;;;0.73;0.73;;;;;;;;;;5002893;28;20085;-71
2023/08/15 06:44:43;;;;;;;0.45;0.40;;;;;;;;;;4976883;28;20073;-72
2023/08/15 06:47:09;;;;;;;7.68;0.60;;;;;;;;;;4996812;28;20125;-72
2023/08/15 06:49:35;;;;;;;0.40;0.40;;;;;;;;;;4982580;28;20046;-73
2023/08/15 06:52:03;;;;;;;0.30;0.30;;;;;;;;;;4996917;28;20077;-75
2023/08/15 06:54:29;;;;;;;0.55;0.55;;;;;;;;;;4968321;28;20046;-74
2023/08/15 06:56:55;;;;;;;0.60;0.50;;;;;;;;;;4969201;28;20121;-74
2023/08/15 06:59:23;;;;;;;1.02;0.98;;;;;;;;;;4986558;28;20042;-75
2023/08/15 07:01:50;;;;;;;;;;;;;;;;;;4983381;28;20050;-74
2023/08/15 07:04:16;;;;;;;0.40;0.40;;;;;;;;;;4984708;28;20373;-76
2023/08/15 07:06:42;;;;;;;0.30;0.30;;;;;;;;;;4987540;28;20245;-74
2023/08/15 07:09:09;;;;;;;0.40;0.40;;;;;;;;;;4970921;28;20094;-75
2023/08/15 07:11:35;;;;;;;0.60;0.60;;;;;;;;;;4981577;28;21835;-75
2023/08/15 07:14:01;;;;;;;0.40;0.40;;;;;;;;;;4982362;28;20042;-74
2023/08/15 07:16:27;;;;;;;0.50;0.50;;;;;;;;;;4986938;28;20041;-75
2023/08/15 07:18:54;;;;;;;0.40;0.40;;;;;;;;;;4988357;28;20406;-76
2023/08/15 07:21:20;;;;;;;0.55;0.55;;;;;;;;;;4989312;28;20413;-76
2023/08/15 07:23:46;;;;;;;0.43;0.43;;;;;;;;;;4988157;28;20077;-75
2023/08/15 07:26:13;;;;;;;2.55;0.85;;;;;;;;;;4988702;28;20050;-75
2023/08/15 07:28:39;;;;;;;0.32;0.32;;;;;;;;;;4988023;28;20909;-75
2023/08/15 07:31:05;;;;;;;0.63;0.63;;;;;;;;;;5000304;28;20529;-74
2023/08/15 07:33:32;;;;;;;0.45;0.45;;;;;;;;;;5002275;28;20053;-74
2023/08/15 07:35:58;;;;;;;0.38;0.38;;;;;;;;;;4970939;28;20120;-75
2023/08/15 07:38:24;;;;;;;0.65;0.60;;;;;;;;;;4994744;28;20129;-76
2023/08/15 07:40:50;;;;;;;0.40;0.40;;;;;;;;;;4985341;28;20124;-75
2023/08/15 07:43:16;;;;;;;1.15;1.15;;;;;;;;;;4983694;28;20443;-76
2023/08/15 07:45:42;;;;;;;0.60;0.60;;;;;;;;;;4996378;28;20046;-74
2023/08/15 07:48:08;;;;;;;0.63;0.55;;;;;;;;;;4987517;28;20065;-77
2023/08/15 07:50:35;;;;;;;0.55;0.55;;;;;;;;;;4985144;28;20043;-75
2023/08/15 07:53:02;;;;;;;0.82;0.82;;;;;;;;;;4976881;28;20129;-76
2023/08/15 07:55:32;;;;;;;0.52;0.52;;;;;;;;;;4998338;28;20117;-75
2023/08/15 07:57:58;;;;;;;0.50;0.50;;;;;;;;;;4984044;28;20073;-75
2023/08/15 08:00:24;;;;;;;0.63;0.63;;;;;;;;;;4989809;28;20046;-75
2023/08/15 08:02:52;;;;;;;0.47;0.47;;;;;;;;;;4979242;28;20026;-74
2023/08/15 08:05:18;;;;;;;0.98;0.73;;;;;;;;;;4983807;28;20383;-74
2023/08/15 08:07:45;;;;;;;0.30;0.30;;;;;;;;;;4987473;28;20042;-73
2023/08/15 08:10:11;;;;;;;0.30;0.30;;;;;;;;;;4986724;28;20053;-73
2023/08/15 08:12:37;;;;;;;0.35;0.32;;;;;;;;;;4985765;28;20038;-73
2023/08/15 08:15:04;;;;;;;0.73;0.73;;;;;;;;;;4981308;28;20068;-74
2023/08/15 08:17:30;;;;;;;0.45;0.45;;;;;;;;;;4984139;28;20062;-74
2023/08/15 08:19:56;;;;;;;0.30;0.30;;;;;;;;;;5007213;28;20041;-73
2023/08/15 08:22:22;;;;;;;0.43;0.43;;;;;;;;;;4985558;28;20053;-73
2023/08/15 08:24:53;;;;;;;0.40;0.40;;;;;;;;;;4975385;28;20064;-74
2023/08/15 08:27:19;;;;;;;0.50;0.50;;;;;;;;;;4976274;28;20145;-73
2023/08/15 08:29:45;;;;;;;0.60;0.60;;;;;;;;;;4988493;28;20045;-73
2023/08/15 08:32:11;;;;;;;0.88;0.88;;;;;;;;;;4987173;28;20713;-73
2023/08/15 08:34:37;;;;;;;0.30;0.30;;;;;;;;;;4993651;28;20072;-73
2023/08/15 08:37:03;;;;;;;0.32;0.32;;;;;;;;;;4980390;28;20053;-74
2023/08/15 08:39:30;;;;;;;0.50;0.50;;;;;;;;;;4970884;28;20042;-73
2023/08/15 08:41:56;;;;;;;0.43;0.43;;;;;;;;;;4995635;28;20050;-73
2023/08/15 08:44:22;;;;;;;0.57;0.57;;;;;;;;;;4978223;28;20049;-75
2023/08/15 08:46:49;;;;;;;0.40;0.40;;;;;;;;;;4972972;28;20077;-76
2023/08/15 08:49:16;;;;;;;0.43;0.43;;;;;;;;;;4996331;28;20049;-74
2023/08/15 08:51:42;;;;;;;0.75;0.75;;;;;;;;;;4989430;28;20042;-74
2023/08/15 08:54:08;;;;;;;0.35;0.32;;;;;;;;;;4996031;28;20050;-73
2023/08/15 08:56:36;;;;;;;0.35;0.35;;;;;;;;;;4988809;28;20046;-74
2023/08/15 08:59:05;;;;;;;0.35;0.35;;;;;;;;;;4999622;28;20421;-75
2023/08/15 09:01:32;;;;;;;0.73;0.73;;;;;;;;;;4971426;28;20053;-72
2023/08/15 09:03:58;;;;;;;0.77;0.77;;;;;;;;;;5000100;28;20042;-74
2023/08/15 09:06:27;;;;;;;0.43;0.43;;;;;;;;;;4991930;28;20053;-72
2023/08/15 09:08:54;;;;;;;0.40;0.40;;;;;;;;;;4987263;28;20061;-73
2023/08/15 09:11:23;;;;;;;0.30;0.30;;;;;;;;;;4958768;28;20101;-73
2023/08/15 09:13:52;;;;;;;0.55;0.55;;;;;;;;;;4992916;28;20397;-73
2023/08/15 09:16:18;;;;;;;0.35;0.35;;;;;;;;;;4994313;28;20417;-73
2023/08/15 09:18:47;;;;;;;0.30;0.30;;;;;;;;;;5002050;28;20042;-73
2023/08/15 09:21:14;;;;;;;0.40;0.40;;;;;;;;;;4971851;28;20497;-73
2023/08/15 09:23:45;;;;;;;0.35;0.35;;;;;;;;;;4978530;28;20045;-74
2023/08/15 09:26:12;;;;;;;0.40;0.40;;;;;;;;;;4991746;28;20520;-74
2023/08/15 09:28:42;;;;;;;0.57;0.57;;;;;;;;;;4997617;28;20054;-74
2023/08/15 09:31:10;;;;;;;0.38;0.38;;;;;;;;;;4988606;28;20150;-74
2023/08/15 09:33:37;;;;;;;0.32;0.32;;;;;;;;;;4985110;28;20042;-74
2023/08/15 09:36:04;;;;;;;0.63;0.60;;;;;;;;;;4984369;28;20049;-74
2023/08/15 09:38:30;;;;;;;0.93;0.93;;;;;;;;;;4992894;28;20044;-74
2023/08/15 09:40:57;;;;;;;0.40;0.40;;;;;;;;;;5005196;28;20282;-74
2023/08/15 09:43:23;;;;;;;0.47;0.47;;;;;;;;;;4995205;28;20042;-74
2023/08/15 09:45:49;;;;;;;0.20;0.20;;;;;;;;;;4984165;28;20042;-74
2023/08/15 09:48:19;;;;;;;0.22;0.22;;;;;;;;;;4989681;28;20616;-74
2023/08/15 09:50:45;;;;;;;0.50;0.50;;;;;;;;;;4967029;28;20045;-75
2023/08/15 09:53:12;;;;;;;0.60;0.60;;;;;;;;;;4987043;28;20055;-75
2023/08/15 09:55:39;;;;;;;0.60;0.60;;;;;;;;;;4987415;28;20057;-74
2023/08/15 09:58:05;;;;;;;1.05;1.05;;;;;;;;;;4997705;28;20501;-75
2023/08/15 10:00:31;;;;;;;5.93;0.50;;;;;;;;;;4999049;28;20042;-75
2023/08/15 10:03:01;;;;;;;0.50;0.50;;;;;;;;;;4992950;28;20085;-74
2023/08/15 10:05:31;;;;;;;0.60;0.60;;;;;;;;;;4981148;28;20038;-74
2023/08/15 10:07:58;;;;;;;0.70;0.70;;;;;;;;;;4966714;28;20382;-73
2023/08/15 10:10:24;;;;;;;;;;;;;;;;;;4986533;28;20041;-74
2023/08/15 10:12:51;;;;;;;0.60;0.60;;;;;;;;;;4994681;28;19917;-74
2023/08/15 10:15:18;;;;;;;0.60;0.60;;;;;;;;;;4981466;28;20045;-74
2023/08/15 10:17:44;;;;;;;0.70;0.70;;;;;;;;;;4978579;28;20297;-74
2023/08/15 10:20:10;;;;;;;0.68;0.68;;;;;;;;;;4999842;28;20042;-74
2023/08/15 10:22:37;;;;;;;0.60;0.60;;;;;;;;;;4990365;28;20497;-73
2023/08/15 10:25:22;;;;;;;0.50;0.50;;;;;;;;;;5000470;28;20083;-74
2023/08/15 10:27:49;;;;;;;0.50;0.50;;;;;;;;;;4996385;28;20533;-74
2023/08/15 10:30:29;;;;;;;0.63;0.63;;;;;;;;;;4985503;28;20410;-74
2023/08/15 10:32:55;;;;;;;0.40;0.40;;;;;;;;;;4992265;28;20121;-74
2023/08/15 10:35:25;;;;;;;0.88;0.88;;;;;;;;;;4992409;28;20503;-74
2023/08/15 10:37:51;;;;;;;0.75;0.75;;;;;;;;;;5007483;28;20088;-74
2023/08/15 10:40:17;;;;;;;0.50;0.50;;;;;;;;;;4991557;28;20050;-74
2023/08/15 10:43:04;;;;;;;0.80;0.80;;;;;;;;;;4986860;28;20041;-73
2023/08/15 10:45:31;;;;;;;0.50;0.50;;;;;;;;;;4996943;28;20112;-73
2023/08/15 10:47:57;;;;;;;0.55;0.55;;;;;;;;;;4984624;28;20045;-75
2023/08/15 10:50:24;;;;;;;0.23;0.23;;;;;;;;;;4987311;28;20038;-75
2023/08/15 10:53:01;;;;;;;0.40;0.40;;;;;;;;;;4975368;28;20139;-76
2023/08/15 10:55:30;;;;;;;0.40;0.40;;;;;;;;;;4993176;28;20047;-76
2023/08/15 10:57:56;;;;;;;0.47;0.47;;;;;;;;;;4991880;28;20045;-76
2023/08/15 11:00:23;;;;;;;0.73;0.73;;;;;;;;;;4977957;28;20035;-77
2023/08/15 11:02:50;;;;;;;0.50;0.50;;;;;;;;;;4968444;28;20042;-78
2023/08/15 11:05:29;;;;;;;0.47;0.40;;;25.30;99.90;;;;;;4985583;28;20042;-79
2023/08/15 11:08:18;;;;;;;0.77;0.70;;;25.40;99.90;;;;;;4971537;28;20093;-78
2023/08/15 11:10:48;;;;;;;0.47;0.47;;;25.40;99.90;;;;;;4985830;28;20485;-78
2023/08/15 11:13:15;;;;;;;0.50;0.50;;;25.60;99.90;;;;;;4965404;28;20042;-78
2023/08/15 11:15:42;;;;;;;1.10;0.80;;;25.60;99.90;;;;;;4981800;28;20205;-78
2023/08/15 11:18:08;;;;;;;0.73;0.73;;;25.60;99.90;;;;;;4979266;28;20049;-78
2023/08/15 11:20:34;;;;;;;0.65;0.65;;;25.70;99.90;;;;;;4972649;28;20105;-78
2023/08/15 11:23:00;;;;;;;0.50;0.50;;;25.80;99.90;;;;;;4994074;28;20137;-78
2023/08/15 11:25:25;;;;;;;0.30;0.30;;;25.90;99.90;;;;;;4996100;28;20085;-78
2023/08/15 11:27:51;;;;;;;0.50;0.50;;;26.00;99.90;;;;;;4976187;28;20049;-78
2023/08/15 11:30:18;;;;;;;0.40;0.40;;;26.10;99.90;;;;;;4967587;28;20081;-78
2023/08/15 11:32:44;;;;;;;0.40;0.40;;;26.20;99.90;;;;;;4960877;28;20134;-80
2023/08/15 11:35:11;;;;;;;0.40;0.40;;;26.10;99.90;;;;;;4972571;28;20034;-78
2023/08/15 11:37:37;;;;;;;0.50;0.50;;;26.00;99.90;;;;;;4982550;28;20085;-78
2023/08/15 11:40:04;;;;;;;0.60;0.60;;;25.90;99.90;;;;;;4989486;28;20121;-78
2023/08/15 11:42:32;;;;;;;0.30;0.30;;;25.90;99.90;;;;;;4965618;28;20498;-79
2023/08/15 11:45:18;;;;;;;0.60;0.60;;;25.90;99.90;;;;;;4985609;28;20569;-78
2023/08/15 11:48:01;;;;;;;0.85;0.82;;;25.70;99.90;;;;;;4983710;28;20145;-78
2023/08/15 11:50:29;;;;;;;0.40;0.40;;;25.70;99.90;;;;;;4986717;28;20049;-79
2023/08/15 11:52:55;;;;;;;;;;;25.70;99.90;;;;;;4968090;28;20104;-78
2023/08/15 11:55:22;;;;;;;0.38;0.38;;;25.50;99.90;;;;;;4993744;28;20151;-78
2023/08/15 11:57:48;;;;;;;0.43;0.43;;;25.30;99.90;;;;;;4971901;28;20042;-78
2023/08/15 12:00:20;;;;;;;0.40;0.40;;;25.30;99.90;;;;;;4970157;28;20077;-78
2023/08/15 12:02:48;;;;;;;0.52;0.52;;;25.30;99.90;;;;;;4988122;28;20038;-77
2023/08/15 12:05:16;;;;;;;0.40;0.40;;;25.30;99.90;;;;;;4964037;28;20038;-78
2023/08/15 12:07:41;;;;;;;;;;;25.30;99.90;;;;;;4993526;28;20038;-79
2023/08/15 12:10:09;;;;;;;0.60;0.60;;;25.20;99.90;;;;;;4966919;28;19925;-78
2023/08/15 12:12:40;;;;;;;0.52;0.52;;;25.10;99.90;;;;;;4979489;28;20045;-79
2023/08/15 12:15:08;;;;;;;0.50;0.50;;;25.10;99.90;;;;;;4989365;28;20050;-78
2023/08/15 12:17:34;;;;;;;0.38;0.38;;;25.10;99.90;;;;;;5001038;28;20391;-78
2023/08/15 12:20:03;;;;;;;0.22;0.22;;;25.00;99.90;;;;;;4979790;28;20068;-79
2023/08/15 12:22:29;;;;;;;0.38;0.38;;;24.90;99.90;;;;;;4971095;28;20104;-77
2023/08/15 12:24:55;;;;;;;0.40;0.40;;;24.90;99.90;;;;;;4984390;28;20700;-77
2023/08/15 12:27:20;;;;;;;0.40;0.40;;;25.00;99.90;;;;;;4988005;28;20417;-77
2023/08/15 12:29:47;;;;;;;0.30;0.30;;;25.10;99.90;;;;;;4992658;28;20130;-79
2023/08/15 12:32:14;;;;;;;0.30;0.30;;;25.20;99.90;;;;;;4976951;28;20050;-78
2023/08/15 12:34:40;;;;;;;0.68;0.68;;;25.20;99.90;;;;;;4976801;28;20117;-78
2023/08/15 12:37:06;;;;;;;0.50;0.50;;;25.30;99.90;;;;;;4963790;28;20575;-77
2023/08/15 12:39:32;;;;;;;0.25;0.25;;;25.40;99.90;;;;;;4987169;28;20120;-77
2023/08/15 12:41:58;;;;;;;0.45;0.45;;;25.50;99.90;;;;;;4994452;28;20042;-77
2023/08/15 12:44:24;;;;;;;2.30;1.10;;;25.60;99.90;;;;;;4985247;28;20081;-77
2023/08/15 12:46:49;;;;;;;0.30;0.30;;;25.60;99.90;;;;;;4999724;28;20073;-79
2023/08/15 12:49:15;;;;;;;0.47;0.47;;;25.60;99.90;;;;;;4999864;28;20034;-79
2023/08/15 12:51:41;;;;;;;0.30;0.30;;;25.70;99.90;;;;;;4988881;28;20050;-78
2023/08/15 12:54:07;;;;;;;0.40;0.40;;;25.70;99.90;;;;;;4968743;28;20038;-79
2023/08/15 12:56:32;;;;;;;0.68;0.68;;;25.70;99.90;;;;;;4982142;28;20121;-79
2023/08/15 12:58:58;;;;;;;1.10;1.00;;;25.60;99.90;;;;;;4972671;28;20126;-79
2023/08/15 13:01:24;;;;;;;0.40;0.40;;;25.50;99.90;;;;;;4997257;28;20034;-78
2023/08/15 13:03:54;;;;;;;1.13;1.05;;;25.50;99.90;;;;;;4983466;28;20117;-77
2023/08/15 13:06:20;;;;;;;0.40;0.30;;;25.60;99.90;;;;;;4981099;28;20030;-78
2023/08/15 13:08:46;;;;;;;0.50;0.50;;;25.60;99.90;;;;;;4990961;28;20096;-78
2023/08/15 13:11:12;;;;;;;2.20;1.30;;;25.50;99.90;;;;;;4973899;28;20050;-78
2023/08/15 13:13:38;;;;;;;0.30;0.30;;;25.50;99.90;;;;;;4981348;28;20145;-77
2023/08/15 13:16:04;;;;;;;0.70;0.70;;;25.50;99.90;;;;;;5003231;28;20120;-78
2023/08/15 13:18:36;;;;;;;0.40;0.40;;;25.40;99.90;;;;;;4996745;28;20589;-78
2023/08/15 13:21:02;;;;;;;0.47;0.47;;;25.40;99.90;;;;;;4987669;28;20042;-78
2023/08/15 13:23:29;;;;;;;0.77;0.77;;;25.50;99.90;;;;;;4969533;28;20039;-78
2023/08/15 13:25:55;;;;;;;1.08;0.82;;;25.40;99.90;;;;;;4987260;28;20121;-78
2023/08/15 13:28:21;;;;;;;0.45;0.45;;;25.50;99.90;;;;;;4974786;28;20120;-78
2023/08/15 13:30:47;;;;;;;0.30;0.30;;;25.50;99.90;;;;;;4992849;28;20298;-78
2023/08/15 13:33:13;;;;;;;0.40;0.40;;;25.60;99.90;;;;;;4983213;28;20504;-78
2023/08/15 13:35:39;;;;;;;0.43;0.43;;;25.40;99.90;;;;;;4974152;28;20038;-79
2023/08/15 13:38:05;;;;;;;0.75;0.75;;;25.30;99.90;;;;;;4993232;28;20490;-79
2023/08/15 13:40:30;;;;;;;0.50;0.50;;;25.30;99.90;;;;;;4992940;28;20114;-78
2023/08/15 13:42:58;;;;;;;0.38;0.38;;;25.20;99.90;;;;;;4989934;28;20034;-78
2023/08/15 13:45:25;;;;;;;1.00;0.93;;;25.20;99.90;;;;;;4997507;28;20514;-78
2023/08/15 13:47:51;;;;;;;0.30;0.30;;;25.30;99.90;;;;;;4994649;28;20045;-78
2023/08/15 13:50:16;;;;;;;0.40;0.40;;;25.40;99.90;;;;;;4981863;28;20039;-78
2023/08/15 13:52:42;;;;;;;0.40;0.40;;;25.40;99.90;;;;;;4998006;28;20038;-78
2023/08/15 13:55:08;;;;;;;0.60;0.60;;;25.50;99.90;;;;;;5006095;28;20042;-78
2023/08/15 13:57:34;;;;;;;0.60;0.60;;;25.40;99.90;;;;;;4966034;28;20069;-78
2023/08/15 14:00:36;;;;;;;0.50;0.50;;;25.40;99.90;;;;;;4984266;28;20102;-79
2023/08/15 14:03:03;;;;;;;1.08;0.98;;;25.30;99.90;;;;;;4963943;28;20109;-78
2023/08/15 14:05:28;;;;;;;1.20;1.20;;;25.20;99.90;;;;;;5003208;28;20084;-79
2023/08/15 14:07:54;;;;;;;0.20;0.20;;;25.10;99.90;;;;;;5000434;28;20117;-79
2023/08/15 14:10:22;;;;;;;0.50;0.50;;;25.00;99.90;;;;;;4974557;28;20378;-79
2023/08/15 14:12:48;;;;;;;0.50;0.50;;;25.10;99.90;;;;;;4976624;28;20493;-79
2023/08/15 14:15:14;;;;;;;0.40;0.40;;;25.20;99.90;;;;;;4988562;28;20053;-79
2023/08/15 14:17:39;;;;;;;1.05;0.73;;;25.30;99.90;;;;;;4997102;28;20080;-78
2023/08/15 14:20:06;;;;;;;0.80;0.80;;;25.40;99.90;;;;;;4973581;28;20045;-78
2023/08/15 14:22:32;;;;;;;0.75;0.75;;;25.50;99.90;;;;;;4975253;28;20062;-78
2023/08/15 14:24:58;;;;;;;0.40;0.40;;;25.50;99.90;;;;;;4996402;28;20494;-78
2023/08/15 14:27:24;;;;;;;0.57;0.57;;;25.50;99.90;;;;;;4983650;28;20054;-78
2023/08/15 14:29:50;;;;;;;0.50;0.50;;;25.40;99.90;;;;;;4997567;28;20049;-79
2023/08/15 14:32:16;;;;;;;0.38;0.38;;;25.50;99.90;;;;;;4987893;28;20437;-78